Time;durP1;ratioP1;P1;durP2;ratioP2;P2;SDS_P1;SDS_P2;PMS_P1;PMS_P2;Temp;Humidity;BMP_temperature;BMP_pressure;BME280_temperature;BME280_humidity;BME280_pressure;Samples;Min_cycle;Max_cycle;Signal;HPM_P1;HPM_P2
2022/09/30 00:00:42;;;;;;;18.75;14.45;;;;;;;5.94;95.23;100607.25;6096522;23;19998;-83
2022/09/30 00:03:07;;;;;;;18.75;14.48;;;;;;;5.90;94.97;100600.31;6096016;23;20007;-83
2022/09/30 00:05:33;;;;;;;18.38;14.82;;;;;;;5.85;95.38;100602.25;6093506;23;20105;-83
2022/09/30 00:07:58;;;;;;;17.75;14.18;;;;;;;5.84;95.69;100605.78;6093791;23;20014;-83
2022/09/30 00:10:23;;;;;;;14.95;13.38;;;;;;;5.82;95.77;100604.13;6092411;23;20003;-83
2022/09/30 00:12:51;;;;;;;16.25;14.18;;;;;;;5.80;95.96;100612.09;6094471;23;20485;-83
2022/09/30 00:15:17;;;;;;;14.88;13.15;;;;;;;5.78;96.16;100613.09;6091978;23;20460;-83
2022/09/30 00:17:42;;;;;;;17.23;13.55;;;;;;;5.73;96.56;100621.16;6067400;23;20010;-83
2022/09/30 00:20:08;;;;;;;17.08;14.68;;;;;;;5.62;96.69;100610.97;6092709;23;20007;-83
2022/09/30 00:22:33;;;;;;;17.80;14.75;;;;;;;5.68;97.59;100631.00;6092355;23;20017;-83
2022/09/30 00:24:59;;;;;;;17.75;14.23;;;;;;;5.66;97.52;100627.56;6091188;23;20002;-83
2022/09/30 00:27:24;;;;;;;17.42;14.25;;;;;;;5.63;97.56;100633.78;6092116;23;20022;-83
2022/09/30 00:29:49;;;;;;;18.23;13.90;;;;;;;5.59;97.35;100626.88;6091863;23;20006;-83
2022/09/30 00:32:15;;;;;;;19.83;14.52;;;;;;;5.59;97.63;100632.16;6091755;23;20002;-83
2022/09/30 00:34:40;;;;;;;20.08;14.40;;;;;;;5.57;97.38;100631.38;6091408;23;20002;-83
2022/09/30 00:37:07;;;;;;;18.35;14.95;;;;;;;5.55;97.26;100625.28;6091787;23;20085;-83
2022/09/30 00:39:36;;;;;;;18.13;14.70;;;;;;;5.51;97.40;100623.66;6091936;23;20425;-83
2022/09/30 00:42:05;;;;;;;16.40;13.73;;;;;;;5.47;97.54;100622.03;6091738;23;20009;-83
2022/09/30 00:44:49;;;;;;;17.90;14.60;;;;;;;5.46;97.66;100629.09;6091021;23;20006;-83
2022/09/30 00:47:35;;;;;;;18.35;15.80;;;;;;;5.40;97.70;100624.03;6092163;23;20006;-83
2022/09/30 00:50:41;;;;;;;17.42;15.07;;;;;;;5.43;97.85;100621.28;6091759;23;20030;-83
2022/09/30 00:53:12;;;;;;;16.38;14.40;;;;;;;5.39;97.43;100622.31;6091531;23;20081;-83
2022/09/30 00:55:46;;;;;;;16.38;13.98;;;;;;;5.32;97.53;100615.50;6093165;23;20042;-83
2022/09/30 00:58:19;;;;;;;17.85;14.70;;;;;;;5.27;97.69;100616.53;6094551;23;20013;-83
2022/09/30 01:00:44;;;;;;;16.33;14.40;;;;;;;5.29;97.66;100618.22;6093246;23;20006;-83
2022/09/30 01:03:09;;;;;;;19.45;15.55;;;;;;;5.21;98.03;100612.31;6091333;23;20130;-83
2022/09/30 01:05:35;;;;;;;19.65;15.20;;;;;;;5.28;98.11;100624.41;6092384;23;20073;-83
2022/09/30 01:08:04;;;;;;;17.65;14.40;;;;;;;5.24;97.74;100630.72;6091696;23;20340;-83
2022/09/30 01:10:29;;;;;;;18.58;14.88;;;;;;;5.22;98.11;100628.13;6092474;23;20654;-83
2022/09/30 01:12:55;;;;;;;17.65;14.65;;;;;;;5.16;98.19;100625.66;6092655;23;20014;-83
2022/09/30 01:15:28;;;;;;;19.67;15.25;;;;;;;5.12;98.51;100615.28;6092166;23;20007;-83
2022/09/30 01:18:07;;;;;;;18.35;15.25;;;;;;;5.17;99.08;100626.53;6094460;23;20002;-83
2022/09/30 01:20:49;;;;;;;18.35;15.27;;;;;;;5.14;98.99;100629.25;6093484;23;20006;-83
2022/09/30 01:23:50;;;;;;;17.45;15.13;;;;;;;5.03;98.73;100615.56;6090950;23;20096;-83
2022/09/30 01:26:40;;;;;;;17.23;15.38;;;;;;;5.05;98.46;100625.13;6065926;23;20411;-83
2022/09/30 01:29:35;;;;;;;17.40;14.65;;;;;;;5.04;98.47;100625.19;6091767;23;20456;-83
2022/09/30 01:32:11;;;;;;;;;;;;;;;5.05;97.12;100627.78;6094679;23;20002;-83
2022/09/30 01:35:06;;;;;;;16.77;14.77;;;;;;;4.95;98.51;100629.00;6093725;23;19994;-83
2022/09/30 01:38:13;;;;;;;16.83;14.18;;;;;;;4.95;98.54;100621.06;6091746;23;20002;-83
2022/09/30 01:41:09;;;;;;;17.63;13.85;;;;;;;4.93;98.55;100628.16;6003004;23;20015;-83
2022/09/30 01:43:44;;;;;;;17.08;14.48;;;;;;;4.90;98.62;100629.13;5977972;23;20012;-83
2022/09/30 01:46:21;;;;;;;17.45;14.90;;;;;;;4.87;98.89;100620.44;6001965;23;20019;-83
2022/09/30 01:49:00;;;;;;;15.23;13.63;;;;;;;4.86;98.82;100622.22;6002587;23;20469;-83
2022/09/30 01:51:38;;;;;;;19.65;14.40;;;;;;;4.83;98.97;100622.31;6002128;23;20067;-84
2022/09/30 01:54:16;;;;;;;14.77;13.15;;;;;;;4.81;98.98;100621.50;6001563;23;20007;-83
2022/09/30 01:56:48;;;;;;;16.23;13.15;;;;;;;4.80;99.18;100616.25;6003027;23;20015;-83
2022/09/30 01:59:24;;;;;;;15.65;13.55;;;;;;;4.76;99.28;100626.03;5978438;23;20460;-83
2022/09/30 02:01:58;;;;;;;17.10;13.85;;;;;;;4.74;99.35;100625.25;6002369;23;20019;-83
2022/09/30 02:04:41;;;;;;;16.88;13.23;;;;;;;4.71;99.47;100631.47;6000805;23;20331;-83
2022/09/30 02:07:13;;;;;;;16.88;14.27;;;;;;;4.64;99.37;100632.56;6002128;23;20024;-84
2022/09/30 02:09:48;;;;;;;17.00;14.18;;;;;;;4.65;99.77;100629.00;6008353;23;20014;-84
2022/09/30 02:12:18;;;;;;;19.40;14.60;;;;;;;4.63;99.87;100633.47;6016592;23;20007;-84
2022/09/30 02:14:55;;;;;;;16.80;14.50;;;;;;;4.61;100.00;100627.38;5995222;23;20007;-84
2022/09/30 02:17:45;;;;;;;17.00;14.20;;;;;;;4.60;99.98;100625.66;6056524;23;20084;-83
2022/09/30 02:20:41;;;;;;;17.50;14.57;;;;;;;4.58;100.00;100639.78;6094990;23;20005;-83
2022/09/30 02:23:31;;;;;;;16.10;14.40;;;;;;;4.49;99.91;100625.97;6081262;23;20017;-83
2022/09/30 02:26:10;;;;;;;14.88;13.27;;;;;;;4.46;99.92;100631.31;6099878;23;20076;-83
2022/09/30 02:28:40;;;;;;;17.10;14.55;;;;;;;4.44;100.00;100629.66;6100268;23;20006;-83
2022/09/30 02:31:09;;;;;;;15.10;13.50;;;;;;;4.45;100.00;100632.22;6098435;23;20045;-83
2022/09/30 02:33:43;;;;;;;15.25;13.65;;;;;;;4.37;100.00;100641.28;6097432;23;20007;-83
2022/09/30 02:36:25;;;;;;;;;;;;;;;4.44;99.14;100643.69;6095371;23;20002;-83
2022/09/30 02:39:00;;;;;;;15.73;14.10;;;;;;;4.35;100.00;100638.69;6093578;23;19905;-83
2022/09/30 02:41:28;;;;;;;16.52;13.48;;;;;;;4.38;100.00;100643.84;6094207;23;20329;-83
2022/09/30 02:43:54;;;;;;;16.65;13.43;;;;;;;4.36;100.00;100643.03;6094171;23;20081;-83
2022/09/30 02:46:20;;;;;;;14.57;12.95;;;;;;;4.31;100.00;100639.69;6067555;23;20014;-84
2022/09/30 02:48:54;;;;;;;15.48;13.25;;;;;;;4.33;100.00;100642.25;6066951;23;20406;-83
2022/09/30 02:51:30;;;;;;;16.55;12.80;;;;;;;4.26;100.00;100633.66;6092592;23;20006;-83
2022/09/30 02:54:34;;;;;;;14.73;13.15;;;;;;;4.28;100.00;100644.16;6067539;23;20018;-83
2022/09/30 02:57:17;;;;;;;13.73;12.32;;;;;;;4.23;100.00;100645.16;6095445;23;20239;-83
2022/09/30 02:59:45;;;;;;;15.02;12.27;;;;;;;4.17;100.00;100632.16;6094323;23;20381;-83
2022/09/30 03:02:10;;;;;;;15.85;12.40;;;;;;;4.17;100.00;100634.78;6092085;23;20454;-83
2022/09/30 03:04:40;;;;;;;14.77;12.52;;;;;;;4.19;100.00;100648.78;6091165;23;20015;-83
2022/09/30 03:07:05;;;;;;;14.98;12.48;;;;;;;4.11;100.00;100634.09;6090704;23;20014;-84
2022/09/30 03:09:34;;;;;;;13.43;11.65;;;;;;;4.14;100.00;100640.16;6091155;23;20436;-83
2022/09/30 03:12:10;;;;;;;14.55;12.52;;;;;;;4.17;100.00;100641.81;6090821;23;20429;-83
2022/09/30 03:15:03;;;;;;;13.52;11.27;;;;;;;4.08;100.00;100634.19;6090755;23;20056;-83
2022/09/30 03:17:51;;;;;;;12.17;10.97;;;;;;;4.11;100.00;100642.88;6078295;23;20010;-83
2022/09/30 03:20:35;;;;;;;13.50;10.75;;;;;;;4.09;100.00;100647.28;6090239;23;20021;-83
2022/09/30 03:23:35;;;;;;;11.85;10.70;;;;;;;4.05;100.00;100645.66;6063970;23;20010;-83
2022/09/30 03:26:24;;;;;;;13.68;10.68;;;;;;;4.04;100.00;100656.25;6090408;23;20036;-83
2022/09/30 03:28:56;;;;;;;11.73;10.48;;;;;;;4.01;100.00;100649.28;6090551;23;20065;-83
2022/09/30 03:31:39;;;;;;;13.80;10.70;;;;;;;4.02;100.00;100655.44;6090273;23;20014;-84
2022/09/30 03:34:27;;;;;;;12.20;10.57;;;;;;;3.95;100.00;100658.22;6089353;23;20336;-83
2022/09/30 03:37:20;;;;;;;12.02;10.75;;;;;;;3.92;100.00;100660.06;6092257;23;20006;-84
2022/09/30 03:39:55;;;;;;;13.05;11.48;;;;;;;3.92;100.00;100663.53;6090195;23;20058;-84
2022/09/30 03:42:43;;;;;;;13.68;10.88;;;;;;;3.90;100.00;100660.09;6089050;23;20019;-84
2022/09/30 03:45:21;;;;;;;13.30;11.73;;;;;;;3.89;100.00;100665.44;6090639;23;20037;-84
2022/09/30 03:47:51;;;;;;;13.15;11.75;;;;;;;3.85;100.00;100656.75;6090286;23;20034;-84
2022/09/30 03:50:20;;;;;;;13.38;11.98;;;;;;;3.83;100.00;100665.56;6089558;23;20081;-84
2022/09/30 03:52:48;;;;;;;17.60;13.02;;;;;;;3.76;100.00;100659.59;6089931;23;20061;-84
2022/09/30 03:55:14;;;;;;;16.63;13.88;;;;;;;3.80;100.00;100671.75;6064257;23;20002;-83
2022/09/30 03:57:41;;;;;;;15.20;13.60;;;;;;;3.76;100.00;100678.00;6090341;23;20007;-84
2022/09/30 04:00:07;;;;;;;16.90;15.10;;;;;;;3.70;100.00;100673.78;6064587;23;20018;-84
2022/09/30 04:02:34;;;;;;;16.17;14.25;;;;;;;3.72;100.00;100668.47;6063390;23;20018;-84
2022/09/30 04:05:00;;;;;;;16.40;13.90;;;;;;;3.70;100.00;100672.91;6090541;23;20033;-84
2022/09/30 04:07:25;;;;;;;16.33;14.63;;;;;;;3.72;100.00;100673.72;6090797;23;20018;-84
2022/09/30 04:09:50;;;;;;;15.13;13.63;;;;;;;3.73;100.00;100681.59;6089962;23;20002;-84
2022/09/30 04:12:15;;;;;;;16.67;15.00;;;;;;;3.69;100.00;100689.63;6089814;23;20085;-84
2022/09/30 04:14:41;;;;;;;18.52;16.05;;;;;;;3.64;100.00;100681.84;6090323;23;20057;-83
2022/09/30 04:17:06;;;;;;;18.02;16.10;;;;;;;3.70;100.00;100692.19;6090670;23;20057;-84
2022/09/30 04:19:36;;;;;;;16.88;14.98;;;;;;;3.64;100.00;100680.97;6091294;23;20037;-84
2022/09/30 04:22:02;;;;;;;18.83;16.92;;;;;;;3.68;100.00;100693.16;6091473;23;20049;-84
2022/09/30 04:24:28;;;;;;;20.15;16.88;;;;;;;3.65;100.00;100703.75;6092230;23;20015;-84
2022/09/30 04:26:53;;;;;;;21.65;18.10;;;;;;;3.65;100.00;100698.50;6066363;23;20009;-84
2022/09/30 04:29:18;;;;;;;20.40;18.20;;;;;;;3.65;100.00;100715.16;6091787;23;20018;-84
2022/09/30 04:31:44;;;;;;;20.55;18.20;;;;;;;3.62;100.00;100714.34;6090884;23;20013;-84
2022/09/30 04:34:10;;;;;;;19.63;17.52;;;;;;;3.66;100.00;100726.53;6091631;23;20592;-84
2022/09/30 04:36:36;;;;;;;18.77;16.77;;;;;;;3.61;100.00;100729.28;6092838;23;20090;-84
2022/09/30 04:39:01;;;;;;;20.35;16.60;;;;;;;3.64;100.00;100731.00;6092476;23;20378;-84
2022/09/30 04:41:28;;;;;;;20.73;17.40;;;;;;;3.57;100.00;100729.41;6093085;23;20006;-84
2022/09/30 04:43:54;;;;;;;20.00;17.00;;;;;;;3.59;100.00;100727.56;6112690;23;20018;-84
2022/09/30 04:46:21;;;;;;;21.27;17.30;;;;;;;3.58;100.00;100728.50;6117417;23;19994;-85
2022/09/30 04:48:48;;;;;;;22.67;19.17;;;;;;;3.58;100.00;100731.13;6116544;23;20001;-84
2022/09/30 04:51:15;;;;;;;19.67;17.73;;;;;;;3.54;100.00;100729.47;6103542;23;20025;-84
2022/09/30 04:53:41;;;;;;;18.63;16.63;;;;;;;3.54;100.00;100730.31;6096910;23;20006;-84
2022/09/30 04:56:07;;;;;;;20.33;17.27;;;;;;;3.50;100.00;100734.78;6096921;23;20017;-84
2022/09/30 04:58:33;;;;;;;20.27;17.80;;;;;;;3.49;100.00;100735.69;6100432;23;20011;-84
2022/09/30 05:01:08;;;;;;;20.70;18.50;;;;;;;3.47;100.00;100748.03;6083314;23;20034;-84
2022/09/30 05:03:33;;;;;;;21.85;19.15;;;;;;;3.52;100.00;100757.59;6113718;23;20009;-83
2022/09/30 05:05:59;;;;;;;22.25;19.25;;;;;;;3.49;100.00;100746.22;6120323;23;20002;-84
2022/09/30 05:08:25;;;;;;;20.13;18.13;;;;;;;3.49;100.00;100750.63;6116326;23;20018;-84
2022/09/30 05:10:56;;;;;;;21.83;19.50;;;;;;;3.50;100.00;100757.59;6100673;23;20405;-84
2022/09/30 05:13:28;;;;;;;22.05;19.85;;;;;;;3.49;100.00;100750.63;6104681;23;20032;-84
2022/09/30 05:15:53;;;;;;;21.55;19.35;;;;;;;3.43;100.00;100743.75;6101753;23;20033;-84
2022/09/30 05:18:19;;;;;;;23.20;20.50;;;;;;;3.46;100.00;100767.34;6103555;23;20002;-84
2022/09/30 05:20:48;;;;;;;22.63;20.27;;;;;;;3.43;100.00;100756.03;6100104;23;19999;-84
2022/09/30 05:23:13;;;;;;;22.42;19.67;;;;;;;3.46;100.00;100755.94;6095874;23;20030;-84
2022/09/30 05:25:38;;;;;;;23.58;20.75;;;;;;;3.43;100.00;100759.53;6096046;23;20443;-84
2022/09/30 05:28:03;;;;;;;23.73;20.25;;;;;;;3.40;100.00;100756.09;6094736;23;20074;-83
2022/09/30 05:30:29;;;;;;;23.92;21.23;;;;;;;3.29;100.00;100748.44;6094959;23;20416;-84
2022/09/30 05:32:54;;;;;;;25.02;22.40;;;;;;;3.38;100.00;100765.78;6093033;23;20006;-84
2022/09/30 05:35:20;;;;;;;24.90;22.20;;;;;;;3.38;100.00;100764.00;6093132;23;20007;-84
2022/09/30 05:37:45;;;;;;;23.88;21.38;;;;;;;3.37;100.00;100770.19;6093896;23;20090;-84
2022/09/30 05:40:10;;;;;;;25.98;22.90;;;;;;;3.39;100.00;100760.50;6092807;23;20002;-84
2022/09/30 05:42:35;;;;;;;24.75;22.08;;;;;;;3.34;100.00;100772.00;6091970;23;20011;-84
2022/09/30 05:45:08;;;;;;;24.73;22.13;;;;;;;3.38;100.00;100774.53;6067116;23;20057;-84
2022/09/30 05:47:33;;;;;;;27.13;23.80;;;;;;;3.37;100.00;100783.34;6092548;23;20007;-85
2022/09/30 05:49:58;;;;;;;28.23;25.23;;;;;;;3.38;100.00;100785.06;6092039;23;20304;-84
2022/09/30 05:52:24;;;;;;;26.65;23.83;;;;;;;3.40;100.00;100795.56;6091002;23;20053;-85
2022/09/30 05:54:50;;;;;;;28.35;25.20;;;;;;;3.40;100.00;100793.81;6066428;23;20429;-84
2022/09/30 05:57:16;;;;;;;33.08;26.83;;;;;;;3.41;100.00;100800.78;6064803;23;20006;-86
2022/09/30 05:59:41;;;;;;;32.00;26.83;;;;;;;3.44;100.00;100800.72;6091435;23;20488;-88
2022/09/30 06:02:08;;;;;;;29.75;26.17;;;;;;;3.52;100.00;100802.34;6090444;23;20105;-84
2022/09/30 06:04:33;;;;;;;29.35;25.63;;;;;;;3.49;100.00;100805.88;6091171;23;20014;-84
2022/09/30 06:06:59;;;;;;;32.83;27.88;;;;;;;3.54;100.00;100816.31;6091164;23;20015;-83
2022/09/30 06:09:24;;;;;;;30.90;27.40;;;;;;;3.57;100.00;100817.09;6090009;23;20002;-84
2022/09/30 06:11:49;;;;;;;32.17;26.95;;;;;;;3.62;100.00;100803.84;6089607;23;20077;-84
2022/09/30 06:14:18;;;;;;;32.60;28.00;;;;;;;3.65;100.00;100811.66;6090391;23;20022;-84
2022/09/30 06:16:44;;;;;;;36.70;27.98;;;;;;;3.69;100.00;100816.81;6091333;23;20383;-84
2022/09/30 06:19:09;;;;;;;35.97;30.90;;;;;;;3.72;100.00;100826.41;6091205;23;20010;-84
2022/09/30 06:21:34;;;;;;;34.20;30.08;;;;;;;3.78;100.00;100828.91;6090791;23;20085;-84
2022/09/30 06:24:00;;;;;;;39.38;31.48;;;;;;;3.86;100.00;100826.09;6065860;23;20013;-84
2022/09/30 06:26:25;;;;;;;41.30;32.78;;;;;;;3.93;100.00;100827.66;6090465;23;20427;-83
2022/09/30 06:28:50;;;;;;;38.72;33.42;;;;;;;3.99;100.00;100823.13;6090864;23;20006;-84
2022/09/30 06:31:16;;;;;;;41.25;36.28;;;;;;;4.13;100.00;100824.56;6090142;23;20010;-84
2022/09/30 06:33:42;;;;;;;46.33;39.80;;;;;;;4.36;100.00;100829.28;6090274;23;20073;-84
2022/09/30 06:36:07;;;;;;;41.33;34.05;;;;;;;4.66;100.00;100836.38;6090521;23;20284;-83
2022/09/30 06:38:35;;;;;;;41.85;34.00;;;;;;;4.91;100.00;100841.84;6090611;23;20425;-84
2022/09/30 06:41:01;;;;;;;39.10;34.60;;;;;;;5.16;100.00;100835.88;6089597;23;20008;-86
2022/09/30 06:43:26;;;;;;;38.42;32.25;;;;;;;5.33;100.00;100833.63;6064196;23;20006;-84
2022/09/30 06:45:52;;;;;;;35.22;30.55;;;;;;;5.58;100.00;100827.59;6091241;23;20010;-84
2022/09/30 06:48:17;;;;;;;35.05;30.23;;;;;;;5.75;100.00;100822.66;6065517;23;20007;-83
2022/09/30 06:50:44;;;;;;;34.47;28.23;;;;;;;5.90;100.00;100835.41;6091121;23;20057;-84
2022/09/30 06:53:11;;;;;;;34.75;28.65;;;;;;;5.93;100.00;100830.03;6090503;23;20425;-84
2022/09/30 06:55:38;;;;;;;34.90;29.95;;;;;;;5.92;100.00;100835.38;6091703;23;20011;-84
2022/09/30 06:58:06;;;;;;;32.72;29.08;;;;;;;5.82;100.00;100836.56;6091565;23;20350;-83
2022/09/30 07:00:32;;;;;;;33.05;26.77;;;;;;;5.75;100.00;100839.38;6091380;23;19998;-84
2022/09/30 07:02:57;;;;;;;38.10;29.98;;;;;;;5.68;100.00;100839.59;6091702;23;20393;-84
2022/09/30 07:05:26;;;;;;;35.05;29.90;;;;;;;5.58;100.00;100835.53;6094471;23;20062;-85
2022/09/30 07:07:52;;;;;;;38.55;30.77;;;;;;;5.58;100.00;100839.03;6094467;23;20018;-84
2022/09/30 07:10:19;;;;;;;39.60;31.20;;;;;;;5.60;100.00;100839.88;6084804;23;20113;-84
2022/09/30 07:12:51;;;;;;;42.35;31.45;;;;;;;5.59;100.00;100840.75;6112813;23;20002;-84
2022/09/30 07:15:22;;;;;;;41.28;32.13;;;;;;;5.59;100.00;100838.13;6112113;23;20014;-84
2022/09/30 07:17:52;;;;;;;44.55;34.50;;;;;;;5.62;100.00;100848.59;6104359;23;20013;-84
2022/09/30 07:20:18;;;;;;;46.20;36.80;;;;;;;5.62;100.00;100837.16;6104449;23;20017;-83
2022/09/30 07:22:43;;;;;;;45.50;36.63;;;;;;;5.64;100.00;100832.69;6094707;23;20291;-84
2022/09/30 07:25:10;;;;;;;44.85;36.58;;;;;;;5.68;100.00;100836.97;6067932;23;20006;-83
2022/09/30 07:27:35;;;;;;;50.38;38.80;;;;;;;5.73;100.00;100835.06;6092315;23;20017;-84
2022/09/30 07:30:01;;;;;;;52.97;39.15;;;;;;;5.80;100.00;100838.38;6094520;23;20002;-85
2022/09/30 07:32:26;;;;;;;52.28;39.35;;;;;;;5.88;100.00;100834.56;6106893;23;20018;-84
2022/09/30 07:34:51;;;;;;;54.05;40.40;;;;;;;6.09;100.00;100838.34;6109806;23;20046;-84
2022/09/30 07:37:18;;;;;;;48.75;38.53;;;;;;;6.40;100.00;100838.22;6107857;23;20058;-85
2022/09/30 07:39:46;;;;;;;48.00;37.00;;;;;;;6.71;100.00;100839.78;6080238;23;20322;-84
2022/09/30 07:42:14;;;;;;;46.75;35.08;;;;;;;6.91;100.00;100829.38;6102300;23;20010;-84
2022/09/30 07:44:42;;;;;;;42.90;33.75;;;;;;;7.04;99.78;100839.50;6095167;23;20097;-84
2022/09/30 07:47:08;;;;;;;42.45;32.20;;;;;;;7.21;98.88;100843.25;6094070;23;20050;-84
2022/09/30 07:49:34;;;;;;;39.78;30.90;;;;;;;7.49;98.22;100844.88;6093972;23;20070;-84
2022/09/30 07:52:00;;;;;;;37.10;29.92;;;;;;;7.98;96.57;100838.53;6092636;23;20014;-84
2022/09/30 07:54:29;;;;;;;37.60;28.75;;;;;;;8.65;93.94;100847.28;6092472;23;20011;-84
2022/09/30 07:56:55;;;;;;;34.17;26.88;;;;;;;9.27;91.75;100846.31;6093426;23;20006;-84
2022/09/30 07:59:21;;;;;;;34.95;26.88;;;;;;;9.81;88.71;100847.34;6093370;23;20010;-85
2022/09/30 08:01:47;;;;;;;31.88;25.65;;;;;;;10.17;85.86;100851.81;6092784;23;20014;-84
2022/09/30 08:04:13;;;;;;;32.00;24.48;;;;;;;10.38;84.26;100844.63;6092923;23;20085;-85
2022/09/30 08:06:44;;;;;;;33.03;25.88;;;;;;;10.91;82.67;100844.53;6093677;23;20019;-85
2022/09/30 08:09:10;;;;;;;29.70;23.70;;;;;;;11.62;80.74;100843.41;6091461;23;20045;-85
2022/09/30 08:11:36;;;;;;;28.05;22.00;;;;;;;12.17;78.14;100841.19;6092395;23;20003;-84
2022/09/30 08:14:03;;;;;;;29.67;22.77;;;;;;;12.58;75.94;100837.03;6067147;23;20081;-84
2022/09/30 08:16:28;;;;;;;29.50;22.95;;;;;;;13.05;73.71;100833.34;6092321;23;20101;-84
2022/09/30 08:18:59;;;;;;;29.85;22.65;;;;;;;13.64;72.39;100836.78;6091971;23;20369;-84
2022/09/30 08:21:26;;;;;;;29.58;22.85;;;;;;;14.11;68.88;100846.22;6065329;23;20451;-85
2022/09/30 08:23:51;;;;;;;30.58;22.50;;;;;;;14.70;66.62;100847.63;6092421;23;20025;-85
2022/09/30 08:26:17;;;;;;;29.08;22.08;;;;;;;15.23;64.90;100850.25;6093072;23;20025;-86
2022/09/30 08:28:47;;;;;;;31.15;23.67;;;;;;;15.60;63.78;100845.81;6067079;23;20006;-85
2022/09/30 08:31:16;;;;;;;29.63;22.23;;;;;;;15.96;61.94;100848.66;6090857;23;20013;-86
2022/09/30 08:33:42;;;;;;;30.92;23.13;;;;;;;16.21;61.24;100848.53;6092265;23;20503;-85
2022/09/30 08:36:12;;;;;;;27.95;22.05;;;;;;;16.79;60.35;100852.25;6091822;23;20090;-85
2022/09/30 08:38:38;;;;;;;27.45;22.63;;;;;;;17.09;58.60;100842.78;6091391;23;20002;-85
2022/09/30 08:41:16;;;;;;;28.48;22.65;;;;;;;17.70;58.59;100839.75;6090777;23;20033;-85
2022/09/30 08:43:44;;;;;;;26.52;21.98;;;;;;;18.28;56.35;100849.31;6092345;23;20364;-85
2022/09/30 08:46:28;;;;;;;27.35;22.23;;;;;;;18.73;58.27;100841.09;6065638;23;20010;-85
2022/09/30 08:49:17;;;;;;;25.83;21.98;;;;;;;19.24;57.55;100851.06;6091138;23;20081;-85
2022/09/30 08:51:45;;;;;;;27.55;23.13;;;;;;;19.52;51.76;100851.31;6078688;23;20095;-85
2022/09/30 08:54:15;;;;;;;28.75;22.40;;;;;;;19.57;51.27;100847.25;6091022;23;20085;-85
2022/09/30 08:56:43;;;;;;;26.60;22.83;;;;;;;19.95;50.42;100847.53;6092084;23;20045;-85
2022/09/30 08:59:27;;;;;;;27.63;23.05;;;;;;;20.52;52.19;100854.03;6091976;23;20341;-86
2022/09/30 09:02:01;;;;;;;25.38;21.40;;;;;;;20.34;49.22;100846.59;6091732;23;20006;-86
2022/09/30 09:04:26;;;;;;;;;;;;;;;20.97;55.77;100859.69;6094691;23;20010;-88
2022/09/30 09:07:05;;;;;;;26.27;21.48;;;;;;;21.34;46.45;100859.78;6095005;23;20382;-85
2022/09/30 09:09:51;;;;;;;23.00;20.63;;;;;;;21.50;46.17;100856.47;6102249;23;20034;-82
2022/09/30 09:12:45;;;;;;;27.58;21.08;;;;;;;21.78;48.90;100849.22;6107582;23;20066;-84
2022/09/30 09:15:19;;;;;;;25.42;20.77;;;;;;;22.07;47.28;100850.88;6098015;23;20011;-84
2022/09/30 09:18:06;;;;;;;24.85;21.15;;;;;;;22.76;46.59;100830.41;6094063;23;20026;-84
2022/09/30 09:20:35;;;;;;;24.33;20.98;;;;;;;23.38;42.42;100833.06;6091705;23;20073;-84
2022/09/30 09:23:03;;;;;;;20.80;17.90;;;;;;;23.82;42.00;100837.34;6095160;23;20064;-85
2022/09/30 09:25:29;;;;;;;20.60;18.40;;;;;;;24.10;40.25;100843.41;6095665;23;20409;-85
2022/09/30 09:27:59;;;;;;;22.10;19.73;;;;;;;24.36;41.64;100848.72;6093847;23;20013;-84
2022/09/30 09:30:47;;;;;;;20.70;18.52;;;;;;;24.88;39.89;100841.31;6092022;23;19999;-84
2022/09/30 09:33:21;;;;;;;19.17;16.90;;;;;;;25.15;39.80;100843.69;6068007;23;20353;-84
2022/09/30 09:36:04;;;;;;;18.10;16.20;;;;;;;25.77;39.87;100837.56;6072082;23;20006;-84
2022/09/30 09:38:43;;;;;;;16.95;15.15;;;;;;;26.13;38.56;100847.97;6115457;23;20191;-84
2022/09/30 09:41:20;;;;;;;16.63;14.93;;;;;;;26.22;37.15;100860.53;6084629;23;20271;-84
2022/09/30 09:44:10;;;;;;;15.05;13.48;;;;;;;26.21;39.20;100858.81;6117873;23;20018;-84
2022/09/30 09:46:40;;;;;;;14.52;12.85;;;;;;;26.25;36.19;100858.28;6108205;23;20003;-85
2022/09/30 09:49:23;;;;;;;14.55;12.40;;;;;;;26.74;37.86;100852.50;6108646;23;20010;-84
2022/09/30 09:51:54;;;;;;;13.68;12.27;;;;;;;27.39;34.76;100850.22;6099121;23;20084;-84
2022/09/30 09:54:21;;;;;;;11.05;9.07;;;;;;;27.45;33.82;100853.03;6094187;23;20336;-84
2022/09/30 09:56:46;;;;;;;9.80;8.90;;;;;;;27.33;33.41;100848.22;6094448;23;20006;-84
2022/09/30 09:59:17;;;;;;;9.88;8.23;;;;;;;27.52;34.44;100855.88;6096739;23;20006;-85
2022/09/30 10:01:52;;;;;;;8.52;7.63;;;;;;;27.85;33.15;100850.03;6075806;23;20009;-84
2022/09/30 10:04:25;;;;;;;8.57;7.05;;;;;;;28.06;33.11;100847.34;6102481;23;20002;-84
2022/09/30 10:07:00;;;;;;;10.75;6.43;;;;;;;28.29;30.89;100838.97;6077701;23;20421;-84
2022/09/30 10:09:26;;;;;;;7.88;6.15;;;;;;;27.97;31.05;100838.41;6100288;23;20672;-84
2022/09/30 10:12:11;;;;;;;7.28;6.57;;;;;;;28.54;32.99;100834.00;6098494;23;20029;-84
2022/09/30 10:15:20;;;;;;;7.68;6.03;;;;;;;28.34;32.24;100836.50;6045383;23;20384;-84
2022/09/30 10:17:59;;;;;;;6.45;5.70;;;;;;;28.12;31.79;100827.41;6024524;23;20232;-84
2022/09/30 10:20:35;;;;;;;6.97;6.25;;;;;;;28.59;31.54;100830.66;6091778;23;20085;-84
2022/09/30 10:23:18;;;;;;;5.63;5.05;;;;;;;29.20;32.00;100831.00;6092562;23;20002;-84
2022/09/30 10:25:55;;;;;;;6.65;6.00;;;;;;;29.88;29.44;100836.66;6093813;23;20007;-84
2022/09/30 10:28:27;;;;;;;5.35;4.85;;;;;;;29.59;29.34;100838.63;6092775;23;20018;-83
2022/09/30 10:30:56;;;;;;;6.15;4.90;;;;;;;28.55;29.75;100846.63;6091485;23;20003;-84
2022/09/30 10:33:32;;;;;;;7.07;4.65;;;;;;;28.23;30.86;100854.28;6091431;23;20002;-84
2022/09/30 10:36:03;;;;;;;6.50;4.13;;;;;;;27.91;30.06;100852.00;6090769;23;20504;-84
2022/09/30 10:38:30;;;;;;;6.22;4.88;;;;;;;28.63;29.20;100843.75;6090815;23;20081;-84
2022/09/30 10:40:57;;;;;;;6.88;5.65;;;;;;;27.37;31.18;100853.13;6090100;23;20017;-84
2022/09/30 10:43:27;;;;;;;7.03;6.10;;;;;;;27.73;29.73;100846.94;6090742;23;20002;-84
2022/09/30 10:45:53;;;;;;;6.57;5.80;;;;;;;28.70;28.35;100852.91;6090354;23;20101;-84
2022/09/30 10:48:23;;;;;;;5.63;5.10;;;;;;;29.45;27.83;100845.06;6063882;23;20472;-84
2022/09/30 10:50:53;;;;;;;7.40;4.95;;;;;;;29.64;27.78;100843.50;6064440;23;20009;-83
2022/09/30 10:53:41;;;;;;;6.00;4.50;;;;;;;30.47;29.16;100844.25;6089533;23;20081;-84
2022/09/30 10:56:07;;;;;;;4.68;4.20;;;;;;;31.16;25.96;100838.41;6088896;23;20007;-84
2022/09/30 10:58:53;;;;;;;3.90;3.55;;;;;;;31.78;27.16;100852.69;6063627;23;20006;-84
2022/09/30 11:01:31;;;;;;;4.07;3.63;;;;;;;32.17;26.77;100848.06;6087753;23;20142;-84
2022/09/30 11:04:25;;;;;;;5.05;3.30;;;;;;;32.81;25.97;100843.44;6089009;23;20010;-84
2022/09/30 11:06:57;;;;;;;4.50;3.45;;;;;;;32.38;23.67;100852.41;6063570;23;20063;-85
2022/09/30 11:09:32;;;;;;;;;;;;;;;32.70;26.59;100851.38;6086552;23;20037;-84
2022/09/30 11:12:35;;;;;;;2.75;2.42;;;;;;;31.34;26.62;100829.50;6089125;23;19916;-85
2022/09/30 11:15:11;;;;;;;2.87;2.40;;;;;;;29.38;26.71;100844.19;6090521;23;20030;-83
2022/09/30 11:17:57;;;;;;;4.15;3.58;;;;;;;28.79;28.06;100840.75;6089741;23;20585;-82
2022/09/30 11:20:40;;;;;;;3.03;1.80;;;;;;;26.88;30.44;100839.94;6089005;23;20002;-83
2022/09/30 11:23:21;;;;;;;3.50;2.10;;;;;;;26.28;31.23;100835.25;6089814;23;20044;-83
2022/09/30 11:26:01;;;;;;;2.97;1.70;;;;;;;26.41;30.61;100831.91;6089297;23;20018;-84
2022/09/30 11:28:58;;;;;;;3.90;2.05;;;;;;;24.59;33.03;100840.81;6088824;23;20062;-85
2022/09/30 11:31:34;;;;;;;3.25;1.92;;;;;;;22.71;35.82;100840.88;6090032;23;20010;-86
2022/09/30 11:34:27;;;;;;;2.00;1.80;;;;;;;22.85;37.64;100833.00;6092483;23;20125;-83
2022/09/30 11:37:07;;;;;;;3.00;2.20;;;;;;;25.43;33.94;100837.84;6091706;23;20006;-83